Time,TemperatureF,DewpointF,PressureIn,WindDirection,WindDirectionDegrees,WindSpeedMPH,WindSpeedGustMPH,Humidity,HourlyPrecipIn,Conditions,Clouds,dailyrainin,SoftwareType,DateUTC
2013-05-18 00:00:00,40.5,33.5,30.62,NE,45,0.0,0.0,76,0.00,,---,0.00,VWS V13.01,2013-05-18 07:00:00,
2013-05-18 00:05:00,40.5,33.5,30.62,NE,45,0.0,0.0,76,0.00,,---,0.00,VWS V13.01,2013-05-18 07:05:00,
2013-05-18 00:10:00,40.5,33.5,30.62,NE,45,0.0,0.0,76,0.00,,---,0.00,VWS V13.01,2013-05-18 07:10:00,
2013-05-18 00:15:00,40.5,33.5,30.62,NE,45,0.0,0.0,76,0.00,,---,0.00,VWS V13.01,2013-05-18 07:15:00,
2013-05-18 00:20:00,40.5,33.5,30.62,NE,45,0.0,0.0,76,0.00,,---,0.00,VWS V13.01,2013-05-18 07:20:00,
2013-05-18 00:25:00,40.5,33.5,30.62,NE,45,0.0,0.0,76,0.00,,---,0.00,VWS V13.01,2013-05-18 07:25:00,
2013-05-18 00:30:00,40.5,33.5,30.62,NE,45,0.0,0.0,76,0.00,,---,0.00,VWS V13.01,2013-05-18 07:30:00,
2013-05-18 00:35:00,40.5,33.5,30.65,NE,45,0.0,0.0,76,0.00,,---,0.00,VWS V13.01,2013-05-18 07:35:00,
2013-05-18 00:40:00,40.5,33.5,30.65,NE,45,0.0,0.0,76,0.00,,---,0.00,VWS V13.01,2013-05-18 07:40:00,
2013-05-18 00:45:00,40.5,33.5,30.65,NE,45,0.0,0.0,76,0.00,,---,0.00,VWS V13.01,2013-05-18 07:45:00,
2013-05-18 00:50:00,40.5,33.5,30.65,NE,45,0.0,0.0,76,0.00,,---,0.00,VWS V13.01,2013-05-18 07:50:00,
2013-05-18 00:55:00,40.5,33.5,30.65,NE,45,0.0,0.0,76,0.00,,---,0.00,VWS V13.01,2013-05-18 07:55:00,
2013-05-18 01:00:00,40.5,33.5,30.65,NE,45,0.0,0.0,76,0.00,,---,0.00,VWS V13.01,2013-05-18 08:00:00,
2013-05-18 01:05:00,40.5,33.5,30.65,NE,45,0.0,0.0,76,0.00,,---,0.00,VWS V13.01,2013-05-18 08:05:00,
2013-05-18 01:10:00,40.5,33.5,30.65,NE,45,0.0,0.0,76,0.00,,---,0.00,VWS V13.01,2013-05-18 08:10:00,
2013-05-18 01:15:00,40.5,33.5,30.65,NE,45,0.0,0.0,76,0.00,,---,0.00,VWS V13.01,2013-05-18 08:15:00,
2013-05-18 01:20:00,40.5,33.5,30.65,NE,45,0.0,0.0,76,0.00,,---,0.00,VWS V13.01,2013-05-18 08:20:00,
2013-05-18 01:25:00,40.5,33.5,30.65,NE,45,0.0,0.0,76,0.00,,---,0.00,VWS V13.01,2013-05-18 08:25:00,
2013-05-18 01:30:00,40.5,33.5,30.65,NE,45,0.0,0.0,76,0.00,,---,0.00,VWS V13.01,2013-05-18 08:30:00,
2013-05-18 01:35:00,40.5,33.5,30.65,NE,45,0.0,0.0,76,0.00,,---,0.00,VWS V13.01,2013-05-18 08:35:00,
2013-05-18 01:40:00,40.5,33.5,30.65,NE,45,0.0,0.0,76,0.00,,---,0.00,VWS V13.01,2013-05-18 08:40:00,
2013-05-18 01:45:00,40.5,33.5,30.65,NE,45,0.0,0.0,76,0.00,,---,0.00,VWS V13.01,2013-05-18 08:45:00,
2013-05-18 01:50:00,40.5,33.5,30.65,NE,45,0.0,0.0,76,0.00,,---,0.00,VWS V13.01,2013-05-18 08:50:00,
2013-05-18 01:55:00,40.5,33.5,30.65,NE,45,0.0,0.0,76,0.00,,---,0.00,VWS V13.01,2013-05-18 08:55:00,
2013-05-18 02:00:00,40.5,33.5,30.65,NE,45,0.0,0.0,76,0.00,,---,0.00,VWS V13.01,2013-05-18 09:00:00,
2013-05-18 02:05:00,40.5,33.5,30.65,NE,45,0.0,0.0,76,0.00,,---,0.00,VWS V13.01,2013-05-18 09:05:00,
2013-05-18 02:10:00,40.5,33.5,30.65,NE,45,0.0,0.0,76,0.00,,---,0.00,VWS V13.01,2013-05-18 09:10:00,
2013-05-18 02:15:00,40.5,33.5,30.65,NE,45,0.0,0.0,76,0.00,,---,0.00,VWS V13.01,2013-05-18 09:15:00,
2013-05-18 02:20:00,40.5,33.5,30.65,NE,45,0.0,0.0,76,0.00,,---,0.00,VWS V13.01,2013-05-18 09:20:00,
2013-05-18 02:25:00,40.5,33.5,30.65,NE,45,0.0,0.0,76,0.00,,---,0.00,VWS V13.01,2013-05-18 09:25:00,
2013-05-18 02:30:00,40.5,33.5,30.65,NE,45,0.0,0.0,76,0.00,,---,0.00,VWS V13.01,2013-05-18 09:30:00,
2013-05-18 02:35:00,40.5,33.5,30.65,NE,45,0.0,0.0,76,0.00,,---,0.00,VWS V13.01,2013-05-18 09:35:00,
2013-05-18 02:40:00,40.5,33.5,30.65,NE,45,0.0,0.0,76,0.00,,---,0.00,VWS V13.01,2013-05-18 09:40:00,
2013-05-18 02:45:00,31.5,31.0,30.65,SE,135,0.0,0.0,98,0.00,,---,0.00,VWS V13.01,2013-05-18 09:45:00,
2013-05-18 02:50:00,31.5,31.0,30.65,SE,135,0.0,0.0,98,0.00,,---,0.00,VWS V13.01,2013-05-18 09:50:00,
2013-05-18 02:55:00,31.3,30.8,30.65,SE,135,0.0,0.0,98,0.00,,---,0.00,VWS V13.01,2013-05-18 09:55:00,
2013-05-18 03:00:00,31.3,30.8,30.65,SE,135,0.0,0.0,98,0.00,,---,0.00,VWS V13.01,2013-05-18 10:00:00,
2013-05-18 03:05:00,31.3,30.8,30.65,SE,135,0.0,0.0,98,0.00,,---,0.00,VWS V13.01,2013-05-18 10:05:00,
2013-05-18 03:10:00,31.3,30.8,30.65,SE,135,0.0,0.0,98,0.00,,---,0.00,VWS V13.01,2013-05-18 10:10:00,
2013-05-18 03:15:00,30.9,30.4,30.65,SE,135,0.0,0.0,98,0.00,,---,0.00,VWS V13.01,2013-05-18 10:15:00,
2013-05-18 03:20:00,30.4,29.9,30.65,SE,135,0.0,0.0,98,0.00,,---,0.00,VWS V13.01,2013-05-18 10:20:00,
2013-05-18 03:25:00,30.2,29.7,30.65,SE,135,0.0,0.0,98,0.00,,---,0.00,VWS V13.01,2013-05-18 10:25:00,
2013-05-18 03:30:00,30.4,29.9,30.65,SE,135,0.0,0.0,98,0.00,,---,0.00,VWS V13.01,2013-05-18 10:30:00,
2013-05-18 03:35:00,30.7,30.2,30.65,SE,135,0.0,0.0,98,0.00,,---,0.00,VWS V13.01,2013-05-18 10:35:00,
2013-05-18 03:40:00,30.7,30.2,30.65,SE,135,0.0,0.0,98,0.00,,---,0.00,VWS V13.01,2013-05-18 10:40:00,
2013-05-18 03:45:00,30.7,30.2,30.65,SE,135,0.0,0.0,98,0.00,,---,0.00,VWS V13.01,2013-05-18 10:45:00,
2013-05-18 03:50:00,30.7,30.2,30.65,SE,135,0.0,0.0,98,0.00,,---,0.00,VWS V13.01,2013-05-18 10:50:00,
2013-05-18 03:55:00,30.2,29.7,30.65,SE,135,0.0,0.0,98,0.00,,---,0.00,VWS V13.01,2013-05-18 10:55:00,
2013-05-18 04:00:00,30.2,29.7,30.65,SE,135,0.0,0.0,98,0.00,,---,0.00,VWS V13.01,2013-05-18 11:00:00,
2013-05-18 04:05:00,30.2,29.7,30.65,SE,135,0.0,0.0,98,0.00,,---,0.00,VWS V13.01,2013-05-18 11:05:00,
2013-05-18 04:10:00,29.1,28.6,30.65,SE,135,0.0,0.0,98,0.00,,---,0.00,VWS V13.01,2013-05-18 11:10:00,
2013-05-18 04:15:00,28.6,28.1,30.65,SE,135,0.0,0.0,98,0.00,,---,0.00,VWS V13.01,2013-05-18 11:15:00,
2013-05-18 04:20:00,28.6,28.1,30.65,SE,135,0.0,0.0,98,0.00,,---,0.00,VWS V13.01,2013-05-18 11:20:00,
2013-05-18 04:25:00,28.4,27.9,30.65,SE,135,0.0,0.0,98,0.00,,---,0.00,VWS V13.01,2013-05-18 11:25:00,
2013-05-18 04:30:00,28.6,28.1,30.65,SE,135,0.0,0.0,98,0.00,,---,0.00,VWS V13.01,2013-05-18 11:30:00,
2013-05-18 04:35:00,28.6,28.1,30.65,SE,135,0.0,0.0,98,0.00,,---,0.00,VWS V13.01,2013-05-18 11:35:00,
2013-05-18 04:40:00,28.6,28.1,30.65,SE,135,0.0,0.0,98,0.00,,---,0.00,VWS V13.01,2013-05-18 11:40:00,
2013-05-18 04:45:00,28.6,28.1,30.65,SE,135,0.0,0.0,98,0.00,,---,0.00,VWS V13.01,2013-05-18 11:45:00,
2013-05-18 04:50:00,28.6,28.1,30.65,SE,135,0.0,0.0,98,0.00,,---,0.00,VWS V13.01,2013-05-18 11:50:00,
2013-05-18 04:55:00,28.4,27.9,30.65,SE,135,0.0,0.0,98,0.00,,---,0.00,VWS V13.01,2013-05-18 11:55:00,
2013-05-18 05:00:00,28.6,28.1,30.65,SE,135,0.0,0.0,98,0.00,,---,0.00,VWS V13.01,2013-05-18 12:00:00,
2013-05-18 05:05:00,28.6,28.1,30.65,SE,135,0.0,0.0,98,0.00,,---,0.00,VWS V13.01,2013-05-18 12:05:00,
2013-05-18 05:10:00,28.6,28.1,30.65,SE,135,0.0,0.0,98,0.00,,---,0.00,VWS V13.01,2013-05-18 12:10:00,
2013-05-18 05:15:00,29.3,28.8,30.65,SE,135,0.0,0.0,98,0.00,,---,0.00,VWS V13.01,2013-05-18 12:15:00,
2013-05-18 05:20:00,29.3,28.8,30.65,SE,135,0.0,0.0,98,0.00,,---,0.00,VWS V13.01,2013-05-18 12:20:00,
2013-05-18 05:25:00,29.7,29.2,30.65,SE,135,0.0,0.0,98,0.00,,---,0.00,VWS V13.01,2013-05-18 12:25:00,
2013-05-18 05:30:00,29.8,29.3,30.65,SE,135,0.0,0.0,98,0.00,,---,0.00,VWS V13.01,2013-05-18 12:30:00,
2013-05-18 05:35:00,30.4,29.9,30.65,SE,135,0.0,0.0,98,0.00,,---,0.00,VWS V13.01,2013-05-18 12:35:00,
2013-05-18 05:40:00,30.7,30.2,30.65,SE,135,0.0,0.0,98,0.00,,---,0.00,VWS V13.01,2013-05-18 12:40:00,
2013-05-18 05:45:00,30.7,30.2,30.65,SE,135,0.0,0.0,98,0.00,,---,0.00,VWS V13.01,2013-05-18 12:45:00,
2013-05-18 05:50:00,30.7,30.2,30.65,SE,135,0.0,0.0,98,0.00,,---,0.00,VWS V13.01,2013-05-18 12:50:00,
2013-05-18 05:55:00,30.9,30.4,30.65,SE,135,0.0,0.0,98,0.00,,---,0.00,VWS V13.01,2013-05-18 12:55:00,
2013-05-18 06:00:00,30.9,30.4,30.65,SE,135,0.0,0.0,98,0.00,,---,0.00,VWS V13.01,2013-05-18 13:00:00,
2013-05-18 06:05:00,31.1,30.6,30.65,SE,135,0.0,0.0,98,0.00,,---,0.00,VWS V13.01,2013-05-18 13:05:00,
2013-05-18 06:10:00,31.3,30.8,30.65,SE,135,0.0,0.0,98,0.00,,---,0.00,VWS V13.01,2013-05-18 13:10:00,
2013-05-18 06:15:00,31.5,31.0,30.65,SE,135,0.0,0.0,98,0.00,,---,0.00,VWS V13.01,2013-05-18 13:15:00,
2013-05-18 06:20:00,31.8,31.3,30.65,SE,135,0.0,0.0,98,0.00,,---,0.00,VWS V13.01,2013-05-18 13:20:00,
2013-05-18 06:25:00,32.4,31.9,30.65,SE,135,0.0,0.0,98,0.00,,---,0.00,VWS V13.01,2013-05-18 13:25:00,
2013-05-18 06:30:00,33.1,32.6,30.65,SE,135,0.0,0.0,98,0.00,,---,0.00,VWS V13.01,2013-05-18 13:30:00,
2013-05-18 06:35:00,33.4,32.9,30.65,SE,135,0.0,0.0,98,0.00,,---,0.00,VWS V13.01,2013-05-18 13:35:00,
2013-05-18 06:40:00,33.6,33.1,30.65,SE,135,0.0,0.0,98,0.00,,---,0.00,VWS V13.01,2013-05-18 13:40:00,
2013-05-18 06:45:00,34.0,33.5,30.65,SE,135,0.0,0.0,98,0.00,,---,0.00,VWS V13.01,2013-05-18 13:45:00,
2013-05-18 06:50:00,35.1,34.5,30.65,SE,135,0.0,0.0,98,0.00,,---,0.00,VWS V13.01,2013-05-18 13:50:00,
2013-05-18 06:55:00,35.4,34.9,30.65,SE,135,0.0,0.0,98,0.00,,---,0.00,VWS V13.01,2013-05-18 13:55:00,
2013-05-18 07:00:00,36.1,35.6,30.65,SE,135,0.0,0.0,98,0.00,,---,0.00,VWS V13.01,2013-05-18 14:00:00,
2013-05-18 07:05:00,36.5,36.0,30.65,SE,135,0.0,0.0,98,0.00,,---,0.00,VWS V13.01,2013-05-18 14:05:00,
2013-05-18 07:10:00,36.9,36.3,30.65,SE,135,0.0,0.0,98,0.00,,---,0.00,VWS V13.01,2013-05-18 14:10:00,
2013-05-18 07:15:00,37.4,36.9,30.65,SE,135,0.0,0.0,98,0.00,,---,0.00,VWS V13.01,2013-05-18 14:15:00,
2013-05-18 07:20:00,37.9,37.4,30.65,SE,135,0.0,0.0,98,0.00,,---,0.00,VWS V13.01,2013-05-18 14:20:00,
2013-05-18 07:25:00,38.1,37.6,30.65,SE,135,0.0,0.0,98,0.00,,---,0.00,VWS V13.01,2013-05-18 14:25:00,
2013-05-18 07:30:00,38.7,38.2,30.65,SE,135,0.0,0.0,98,0.00,,---,0.00,VWS V13.01,2013-05-18 14:30:00,
2013-05-18 07:35:00,39.6,39.0,30.65,SE,135,0.0,0.0,98,0.00,,---,0.00,VWS V13.01,2013-05-18 14:35:00,
2013-05-18 07:40:00,40.3,39.5,30.65,SE,135,0.0,0.0,97,0.00,,---,0.00,VWS V13.01,2013-05-18 14:40:00,
2013-05-18 07:45:00,41.2,39.6,30.65,SE,135,0.0,0.0,94,0.00,,---,0.00,VWS V13.01,2013-05-18 14:45:00,
2013-05-18 07:50:00,41.9,39.2,30.65,SE,135,0.0,0.0,90,0.00,,---,0.00,VWS V13.01,2013-05-18 14:50:00,
2013-05-18 07:55:00,42.6,38.1,30.65,SE,135,0.0,0.0,84,0.00,,---,0.00,VWS V13.01,2013-05-18 14:55:00,
2013-05-18 08:00:00,43.2,37.1,30.65,SE,135,0.0,0.0,79,0.00,,---,0.00,VWS V13.01,2013-05-18 15:00:00,
2013-05-18 08:05:00,43.7,36.6,30.65,SE,135,0.0,0.0,76,0.00,,---,0.00,VWS V13.01,2013-05-18 15:05:00,
2013-05-18 08:10:00,45.1,36.3,30.65,SE,135,0.0,0.0,71,0.00,,---,0.00,VWS V13.01,2013-05-18 15:10:00,
2013-05-18 08:15:00,46.4,36.8,30.65,SE,135,0.0,0.0,69,0.00,,---,0.00,VWS V13.01,2013-05-18 15:15:00,
2013-05-18 08:20:00,47.3,37.3,30.65,SE,135,0.0,0.0,68,0.00,,---,0.00,VWS V13.01,2013-05-18 15:20:00,
2013-05-18 08:25:00,48.0,36.0,30.65,NW,315,4.0,4.0,63,0.00,,---,0.00,VWS V13.01,2013-05-18 15:25:00,
2013-05-18 08:30:00,48.9,33.9,30.65,SSW,202,7.2,7.2,56,0.00,,---,0.00,VWS V13.01,2013-05-18 15:30:00,
2013-05-18 08:35:00,49.1,32.2,30.65,WSW,248,7.2,7.6,52,0.00,,---,0.00,VWS V13.01,2013-05-18 15:35:00,
2013-05-18 08:40:00,49.6,31.8,30.65,WSW,248,4.9,5.4,50,0.00,,---,0.00,VWS V13.01,2013-05-18 15:40:00,
2013-05-18 08:45:00,49.6,31.8,30.65,SW,225,4.5,4.5,50,0.00,,---,0.00,VWS V13.01,2013-05-18 15:45:00,
2013-05-18 08:50:00,50.0,32.1,30.65,SW,225,3.1,3.1,50,0.00,,---,0.00,VWS V13.01,2013-05-18 15:50:00,
2013-05-18 08:55:00,50.2,31.3,30.65,SW,225,3.1,4.5,48,0.00,,---,0.00,VWS V13.01,2013-05-18 15:55:00,
2013-05-18 09:00:00,51.3,31.7,30.65,WSW,248,7.6,7.6,47,0.00,,---,0.00,VWS V13.01,2013-05-18 16:00:00,
2013-05-18 09:05:00,53.1,32.8,30.65,SW,225,3.6,6.3,46,0.00,,---,0.00,VWS V13.01,2013-05-18 16:05:00,
2013-05-18 09:10:00,53.1,31.2,30.65,SW,225,4.9,5.4,43,0.00,,---,0.00,VWS V13.01,2013-05-18 16:10:00,
2013-05-18 09:15:00,54.7,32.1,30.65,SW,225,3.1,3.6,42,0.00,,---,0.00,VWS V13.01,2013-05-18 16:15:00,
2013-05-18 09:20:00,53.6,31.1,30.65,SW,225,6.3,6.3,42,0.00,,---,0.00,VWS V13.01,2013-05-18 16:20:00,
2013-05-18 09:25:00,52.9,30.4,30.65,SW,225,4.0,5.8,42,0.00,,---,0.00,VWS V13.01,2013-05-18 16:25:00,
2013-05-18 09:30:00,51.8,30.0,30.65,West,270,6.3,8.1,43,0.00,,---,0.00,VWS V13.01,2013-05-18 16:30:00,
2013-05-18 09:35:00,51.3,30.1,30.65,SW,225,3.6,5.4,44,0.00,,---,0.00,VWS V13.01,2013-05-18 16:35:00,
2013-05-18 09:40:00,51.3,30.1,30.65,West,270,7.2,7.2,44,0.00,,---,0.00,VWS V13.01,2013-05-18 16:40:00,
2013-05-18 09:45:00,50.9,30.3,30.65,West,270,3.1,3.1,45,0.00,,---,0.00,VWS V13.01,2013-05-18 16:45:00,
2013-05-18 09:50:00,50.5,30.5,30.65,SW,225,3.1,5.8,46,0.00,,---,0.00,VWS V13.01,2013-05-18 16:50:00,
2013-05-18 09:55:00,50.2,30.2,30.65,SW,225,2.7,5.4,46,0.00,,---,0.00,VWS V13.01,2013-05-18 16:55:00,
2013-05-18 10:00:00,50.0,30.6,30.65,West,270,3.6,7.2,47,0.00,,---,0.00,VWS V13.01,2013-05-18 17:00:00,
2013-05-18 10:05:00,50.0,31.1,30.65,WSW,248,3.6,3.6,48,0.00,,---,0.00,VWS V13.01,2013-05-18 17:05:00,
2013-05-18 10:10:00,50.2,31.3,30.65,SW,225,2.7,4.0,48,0.00,,---,0.00,VWS V13.01,2013-05-18 17:10:00,
2013-05-18 10:15:00,50.2,31.8,30.65,SW,225,9.6,9.6,49,0.00,,---,0.00,VWS V13.01,2013-05-18 17:15:00,
2013-05-18 10:20:00,50.4,32.4,30.65,SW,225,4.0,4.0,50,0.00,,---,0.00,VWS V13.01,2013-05-18 17:20:00,
2013-05-18 10:25:00,50.7,32.3,30.65,SW,225,4.0,4.0,49,0.00,,---,0.00,VWS V13.01,2013-05-18 17:25:00,
2013-05-18 10:30:00,51.1,32.1,30.65,SW,225,2.7,3.6,48,0.00,,---,0.00,VWS V13.01,2013-05-18 17:30:00,
2013-05-18 10:35:00,51.4,31.9,30.65,WNW,292,5.8,5.8,47,0.00,,---,0.00,VWS V13.01,2013-05-18 17:35:00,
2013-05-18 10:40:00,51.8,32.2,30.65,West,270,5.4,5.8,47,0.00,,---,0.00,VWS V13.01,2013-05-18 17:40:00,
2013-05-18 10:45:00,52.9,32.7,30.65,West,270,3.1,3.1,46,0.00,,---,0.00,VWS V13.01,2013-05-18 17:45:00,
2013-05-18 10:50:00,54.7,33.8,30.65,SW,225,4.9,4.9,45,0.00,,---,0.00,VWS V13.01,2013-05-18 17:50:00,
2013-05-18 10:55:00,54.5,33.0,30.65,SW,225,4.9,4.9,44,0.00,,---,0.00,VWS V13.01,2013-05-18 17:55:00,
2013-05-18 11:00:00,55.0,33.5,30.65,SW,225,3.1,3.6,44,0.00,,---,0.00,VWS V13.01,2013-05-18 18:00:00,
2013-05-18 11:05:00,55.6,32.9,30.65,SW,225,2.7,5.4,42,0.00,,---,0.00,VWS V13.01,2013-05-18 18:05:00,
2013-05-18 11:10:00,56.3,33.5,30.65,SW,225,5.8,5.8,42,0.00,,---,0.00,VWS V13.01,2013-05-18 18:10:00,
2013-05-18 11:15:00,55.4,32.1,30.65,SW,225,2.2,2.7,41,0.00,,---,0.00,VWS V13.01,2013-05-18 18:15:00,
2013-05-18 11:20:00,55.6,32.9,30.65,SW,225,8.1,8.1,42,0.00,,---,0.00,VWS V13.01,2013-05-18 18:20:00,
2013-05-18 11:25:00,56.3,32.9,30.65,SW,225,3.1,4.0,41,0.00,,---,0.00,VWS V13.01,2013-05-18 18:25:00,
2013-05-18 11:30:00,56.3,32.3,30.65,WNW,292,2.2,3.1,40,0.00,,---,0.00,VWS V13.01,2013-05-18 18:30:00,
2013-05-18 11:35:00,55.9,32.0,30.65,SW,225,4.0,4.5,40,0.00,,---,0.00,VWS V13.01,2013-05-18 18:35:00,
2013-05-18 11:40:00,56.8,32.8,30.65,West,270,2.7,3.1,40,0.00,,---,0.00,VWS V13.01,2013-05-18 18:40:00,
2013-05-18 11:45:00,57.6,32.8,30.65,WSW,248,5.4,6.7,39,0.00,,---,0.00,VWS V13.01,2013-05-18 18:45:00,
2013-05-18 11:50:00,58.5,33.6,30.65,SW,225,2.2,2.7,39,0.00,,---,0.00,VWS V13.01,2013-05-18 18:50:00,
2013-05-18 11:55:00,58.1,33.3,30.65,West,270,0.0,4.0,39,0.00,,---,0.00,VWS V13.01,2013-05-18 18:55:00,
2013-05-18 12:00:00,57.9,33.1,30.65,SW,225,5.4,5.4,39,0.00,,---,0.00,VWS V13.01,2013-05-18 19:00:00,
2013-05-18 12:05:00,57.2,32.5,30.65,South,180,3.6,5.4,39,0.00,,---,0.00,VWS V13.01,2013-05-18 19:05:00,
2013-05-18 12:10:00,57.2,32.5,30.65,SW,225,3.1,5.8,39,0.00,,---,0.00,VWS V13.01,2013-05-18 19:10:00,
2013-05-18 12:15:00,58.3,33.5,30.65,WSW,248,2.7,5.4,39,0.00,,---,0.00,VWS V13.01,2013-05-18 19:15:00,
2013-05-18 12:20:00,58.1,33.3,30.65,NW,315,4.9,4.9,39,0.00,,---,0.00,VWS V13.01,2013-05-18 19:20:00,
2013-05-18 12:25:00,58.6,33.8,30.65,North,0,0.0,3.6,39,0.00,,---,0.00,VWS V13.01,2013-05-18 19:25:00,
2013-05-18 12:30:00,59.2,33.6,30.65,West,270,3.1,3.1,38,0.00,,---,0.00,VWS V13.01,2013-05-18 19:30:00,
2013-05-18 12:35:00,60.4,34.7,30.65,NW,315,4.0,4.0,38,0.00,,---,0.00,VWS V13.01,2013-05-18 19:35:00,
2013-05-18 12:40:00,60.1,33.8,30.65,SW,225,3.6,3.6,37,0.00,,---,0.00,VWS V13.01,2013-05-18 19:40:00,
2013-05-18 12:45:00,59.4,33.1,30.65,SW,225,5.8,5.8,37,0.00,,---,0.00,VWS V13.01,2013-05-18 19:45:00,
2013-05-18 12:50:00,60.4,34.1,30.65,West,270,5.4,5.4,37,0.00,,---,0.00,VWS V13.01,2013-05-18 19:50:00,
2013-05-18 12:55:00,59.7,33.4,30.65,NE,45,10.5,10.5,37,0.00,,---,0.00,VWS V13.01,2013-05-18 19:55:00,
2013-05-18 13:00:00,59.0,32.8,30.65,NW,315,8.1,8.3,37,0.00,,---,0.00,VWS V13.01,2013-05-18 20:00:00,
2013-05-18 13:05:00,60.3,35.2,30.65,NE,45,11.0,11.0,39,0.00,,---,0.00,VWS V13.01,2013-05-18 20:05:00,
2013-05-18 13:10:00,59.7,33.4,30.65,NW,315,4.0,5.4,37,0.00,,---,0.00,VWS V13.01,2013-05-18 20:10:00,
2013-05-18 13:15:00,59.5,33.3,30.65,NW,315,4.5,6.3,37,0.00,,---,0.00,VWS V13.01,2013-05-18 20:15:00,
2013-05-18 13:20:00,58.8,33.3,30.65,NE,45,3.1,3.1,38,0.00,,---,0.00,VWS V13.01,2013-05-18 20:20:00,
2013-05-18 13:25:00,59.5,33.9,30.65,North,0,3.1,6.3,38,0.00,,---,0.00,VWS V13.01,2013-05-18 20:25:00,
2013-05-18 13:30:00,60.3,33.9,30.65,North,0,6.7,8.7,37,0.00,,---,0.00,VWS V13.01,2013-05-18 20:30:00,
2013-05-18 13:35:00,59.7,34.1,30.65,NE,45,5.4,5.8,38,0.00,,---,0.00,VWS V13.01,2013-05-18 20:35:00,
2013-05-18 13:40:00,59.4,33.1,30.65,NE,45,9.6,9.6,37,0.00,,---,0.00,VWS V13.01,2013-05-18 20:40:00,
2013-05-18 13:45:00,58.8,33.3,30.65,ENE,68,5.4,7.6,38,0.00,,---,0.00,VWS V13.01,2013-05-18 20:45:00,
2013-05-18 13:50:00,59.2,33.0,30.65,SW,225,3.6,4.5,37,0.00,,---,0.00,VWS V13.01,2013-05-18 20:50:00,
2013-05-18 13:55:00,59.2,33.0,30.65,North,0,7.2,7.2,37,0.00,,---,0.00,VWS V13.01,2013-05-18 20:55:00,
2013-05-18 14:00:00,58.3,32.8,30.65,NE,45,8.1,8.1,38,0.00,,---,0.00,VWS V13.01,2013-05-18 21:00:00,
2013-05-18 14:05:00,57.6,31.5,30.65,NE,45,9.2,9.2,37,0.00,,---,0.00,VWS V13.01,2013-05-18 21:05:00,
2013-05-18 14:10:00,57.6,32.2,30.65,NW,315,5.8,5.8,38,0.00,,---,0.00,VWS V13.01,2013-05-18 21:10:00,
2013-05-18 14:15:00,57.6,32.2,30.65,North,0,4.9,4.9,38,0.00,,---,0.00,VWS V13.01,2013-05-18 21:15:00,
2013-05-18 14:20:00,58.5,33.0,30.65,WNW,292,2.7,2.7,38,0.00,,---,0.00,VWS V13.01,2013-05-18 21:20:00,
2013-05-18 14:25:00,59.5,33.3,30.65,North,0,4.0,5.8,37,0.00,,---,0.00,VWS V13.01,2013-05-18 21:25:00,
2013-05-18 14:30:00,59.2,33.0,30.65,North,0,2.7,2.7,37,0.00,,---,0.00,VWS V13.01,2013-05-18 21:30:00,
2013-05-18 14:35:00,58.8,33.3,30.65,West,270,0.0,0.0,38,0.00,,---,0.00,VWS V13.01,2013-05-18 21:35:00,
2013-05-18 14:40:00,59.0,32.8,30.65,North,0,4.0,4.0,37,0.00,,---,0.00,VWS V13.01,2013-05-18 21:40:00,
2013-05-18 14:45:00,57.9,33.1,30.65,North,0,4.0,5.8,39,0.00,,---,0.00,VWS V13.01,2013-05-18 21:45:00,
2013-05-18 14:50:00,57.6,32.8,30.65,NNW,338,8.1,8.1,39,0.00,,---,0.00,VWS V13.01,2013-05-18 21:50:00,
2013-05-18 14:55:00,56.8,32.8,30.65,North,0,5.8,5.8,40,0.00,,---,0.00,VWS V13.01,2013-05-18 21:55:00,
2013-05-18 15:00:00,55.9,33.2,30.68,NNE,22,4.0,5.4,42,0.00,,---,0.00,VWS V13.01,2013-05-18 22:00:00,
2013-05-18 15:05:00,54.9,35.6,30.68,North,0,4.5,4.5,48,0.00,,---,0.00,VWS V13.01,2013-05-18 22:05:00,
2013-05-18 15:10:00,54.0,37.7,30.68,North,0,5.8,5.8,54,0.00,,---,0.00,VWS V13.01,2013-05-18 22:10:00,
2013-05-18 15:15:00,52.9,40.2,30.68,North,0,3.1,3.1,62,0.00,,---,0.00,VWS V13.01,2013-05-18 22:15:00,
2013-05-18 15:20:00,52.3,40.1,30.68,NNE,22,7.6,7.6,63,0.00,,---,0.00,VWS V13.01,2013-05-18 22:20:00,
2013-05-18 15:25:00,52.0,41.0,30.68,North,0,2.7,4.0,66,0.04,,---,0.04,VWS V13.01,2013-05-18 22:25:00,
2013-05-18 15:30:00,52.3,44.0,30.68,NE,45,2.7,2.7,73,0.04,,---,0.04,VWS V13.01,2013-05-18 22:30:00,
2013-05-18 15:35:00,53.1,42.4,30.68,North,0,7.2,7.2,67,0.04,,---,0.04,VWS V13.01,2013-05-18 22:35:00,
2013-05-18 15:40:00,53.4,40.7,30.68,North,0,4.9,4.9,62,0.04,,---,0.04,VWS V13.01,2013-05-18 22:40:00,
2013-05-18 15:45:00,54.3,40.3,30.68,NE,45,7.6,7.6,59,0.04,,---,0.04,VWS V13.01,2013-05-18 22:45:00,
2013-05-18 15:50:00,54.7,38.4,30.68,North,0,5.4,5.4,54,0.04,,---,0.04,VWS V13.01,2013-05-18 22:50:00,
2013-05-18 15:55:00,55.2,39.8,30.68,NE,45,4.9,4.9,56,0.04,,---,0.04,VWS V13.01,2013-05-18 22:55:00,
2013-05-18 16:00:00,55.8,37.9,30.68,NNE,22,6.7,6.7,51,0.04,,---,0.04,VWS V13.01,2013-05-18 23:00:00,
2013-05-18 16:05:00,55.9,37.1,30.68,NE,45,7.6,8.1,49,0.04,,---,0.04,VWS V13.01,2013-05-18 23:05:00,
2013-05-18 16:10:00,56.1,37.2,30.68,North,0,4.0,4.0,49,0.04,,---,0.04,VWS V13.01,2013-05-18 23:10:00,
2013-05-18 16:15:00,56.5,37.0,30.68,NE,45,5.8,5.8,48,0.04,,---,0.04,VWS V13.01,2013-05-18 23:15:00,
2013-05-18 16:20:00,55.9,35.5,30.68,North,0,7.6,7.6,46,0.04,,---,0.04,VWS V13.01,2013-05-18 23:20:00,
2013-05-18 16:25:00,55.4,35.0,30.68,North,0,10.5,10.5,46,0.04,,---,0.04,VWS V13.01,2013-05-18 23:25:00,
2013-05-18 16:30:00,55.0,34.7,30.68,North,0,3.6,8.3,46,0.00,,---,0.04,VWS V13.01,2013-05-18 23:30:00,
2013-05-18 16:35:00,55.0,35.2,30.68,West,270,4.9,7.2,47,0.00,,---,0.04,VWS V13.01,2013-05-18 23:35:00,
2013-05-18 16:40:00,55.2,35.9,30.68,NNW,338,4.9,6.7,48,0.00,,---,0.04,VWS V13.01,2013-05-18 23:40:00,
2013-05-18 16:45:00,55.2,35.9,30.68,NNW,338,11.0,11.0,48,0.00,,---,0.04,VWS V13.01,2013-05-18 23:45:00,
2013-05-18 16:50:00,54.7,35.9,30.68,North,0,4.0,4.9,49,0.00,,---,0.04,VWS V13.01,2013-05-18 23:50:00,
2013-05-18 16:55:00,54.1,34.4,30.68,WNW,292,4.0,4.0,47,0.00,,---,0.04,VWS V13.01,2013-05-18 23:55:00,
2013-05-18 17:00:00,54.1,34.4,30.68,NNW,338,5.8,5.8,47,0.00,,---,0.04,VWS V13.01,2013-05-19 00:00:00,
2013-05-18 17:05:00,54.0,34.7,30.68,North,0,7.6,7.6,48,0.00,,---,0.04,VWS V13.01,2013-05-19 00:05:00,
2013-05-18 17:10:00,53.8,35.6,30.68,North,0,4.0,8.7,50,0.00,,---,0.04,VWS V13.01,2013-05-19 00:10:00,
2013-05-18 17:15:00,53.4,36.2,30.68,NE,45,7.6,7.6,52,0.00,,---,0.04,VWS V13.01,2013-05-19 00:15:00,
2013-05-18 17:20:00,53.1,34.9,30.71,NNE,22,12.3,12.3,50,0.00,,---,0.04,VWS V13.01,2013-05-19 00:20:00,
2013-05-18 17:25:00,52.7,34.6,30.71,North,0,6.3,10.5,50,0.00,,---,0.04,VWS V13.01,2013-05-19 00:25:00,
2013-05-18 17:30:00,52.7,34.6,30.71,NNE,22,4.5,4.5,50,0.00,,---,0.04,VWS V13.01,2013-05-19 00:30:00,
2013-05-18 17:35:00,52.7,34.6,30.71,North,0,7.6,7.6,50,0.00,,---,0.04,VWS V13.01,2013-05-19 00:35:00,
2013-05-18 17:40:00,51.1,37.3,30.71,North,0,3.6,5.8,59,0.00,,---,0.04,VWS V13.01,2013-05-19 00:40:00,
2013-05-18 17:45:00,50.0,39.5,30.71,North,0,4.0,6.3,67,0.00,,---,0.04,VWS V13.01,2013-05-19 00:45:00,
2013-05-18 17:50:00,50.5,40.8,30.71,North,0,5.8,5.8,69,0.00,,---,0.04,VWS V13.01,2013-05-19 00:50:00,
2013-05-18 17:55:00,51.8,40.4,30.71,North,0,8.1,8.7,65,0.00,,---,0.04,VWS V13.01,2013-05-19 00:55:00,
2013-05-18 18:00:00,52.3,36.2,30.71,North,0,6.3,6.3,54,0.00,,---,0.04,VWS V13.01,2013-05-19 01:00:00,
2013-05-18 18:05:00,52.3,35.7,30.71,NE,45,6.3,7.6,53,0.00,,---,0.04,VWS V13.01,2013-05-19 01:05:00,
2013-05-18 18:10:00,52.5,34.9,30.71,NNW,338,7.6,11.0,51,0.00,,---,0.04,VWS V13.01,2013-05-19 01:10:00,
2013-05-18 18:15:00,52.7,34.6,30.71,WNW,292,5.4,7.6,50,0.00,,---,0.04,VWS V13.01,2013-05-19 01:15:00,
2013-05-18 18:20:00,52.9,34.8,30.71,West,270,5.4,7.6,50,0.00,,---,0.04,VWS V13.01,2013-05-19 01:20:00,
2013-05-18 18:25:00,53.1,34.9,30.71,NNE,22,8.1,10.5,50,0.00,,---,0.04,VWS V13.01,2013-05-19 01:25:00,
2013-05-18 18:30:00,53.1,34.4,30.71,North,0,14.1,14.1,49,0.00,,---,0.04,VWS V13.01,2013-05-19 01:30:00,
2013-05-18 18:35:00,52.7,34.1,30.71,North,0,8.3,11.4,49,0.00,,---,0.04,VWS V13.01,2013-05-19 01:35:00,
2013-05-18 18:40:00,52.3,34.3,30.71,North,0,7.6,8.1,50,0.00,,---,0.04,VWS V13.01,2013-05-19 01:40:00,
2013-05-18 18:45:00,52.3,34.3,30.71,North,0,10.1,10.1,50,0.00,,---,0.04,VWS V13.01,2013-05-19 01:45:00,
2013-05-18 18:50:00,52.2,34.1,30.71,North,0,6.3,14.5,50,0.00,,---,0.04,VWS V13.01,2013-05-19 01:50:00,
2013-05-18 18:55:00,52.0,34.4,30.71,North,0,4.9,8.3,51,0.00,,---,0.04,VWS V13.01,2013-05-19 01:55:00,
2013-05-18 19:00:00,52.0,34.4,30.71,North,0,5.4,5.4,51,0.00,,---,0.04,VWS V13.01,2013-05-19 02:00:00,
2013-05-18 19:05:00,52.0,34.4,30.71,NW,315,8.7,10.1,51,0.00,,---,0.04,VWS V13.01,2013-05-19 02:05:00,
2013-05-18 19:10:00,51.8,33.8,30.71,NNE,22,12.3,13.2,50,0.00,,---,0.04,VWS V13.01,2013-05-19 02:10:00,
2013-05-18 19:15:00,52.2,34.1,30.71,North,0,8.1,8.1,50,0.00,,---,0.04,VWS V13.01,2013-05-19 02:15:00,
2013-05-18 19:20:00,52.2,33.6,30.74,North,0,8.3,10.5,49,0.00,,---,0.04,VWS V13.01,2013-05-19 02:20:00,
2013-05-18 19:25:00,51.8,33.3,30.74,NW,315,6.7,10.1,49,0.00,,---,0.04,VWS V13.01,2013-05-19 02:25:00,
2013-05-18 19:30:00,51.6,33.6,30.74,North,0,4.9,7.2,50,0.00,,---,0.04,VWS V13.01,2013-05-19 02:30:00,
2013-05-18 19:35:00,51.3,33.3,30.74,North,0,4.9,8.1,50,0.00,,---,0.04,VWS V13.01,2013-05-19 02:35:00,
2013-05-18 19:40:00,51.1,33.1,30.74,NW,315,4.9,7.6,50,0.00,,---,0.04,VWS V13.01,2013-05-19 02:40:00,
2013-05-18 19:45:00,51.1,32.6,30.74,NE,45,3.6,5.4,49,0.00,,---,0.04,VWS V13.01,2013-05-19 02:45:00,
2013-05-18 19:50:00,50.9,32.9,30.74,North,0,4.0,4.0,50,0.00,,---,0.04,VWS V13.01,2013-05-19 02:50:00,
2013-05-18 19:55:00,50.9,32.9,30.74,North,0,5.4,7.2,50,0.00,,---,0.04,VWS V13.01,2013-05-19 02:55:00,
2013-05-18 20:00:00,50.7,32.8,30.74,NNE,22,8.1,8.1,50,0.00,,---,0.04,VWS V13.01,2013-05-19 03:00:00,
2013-05-18 20:05:00,50.7,32.3,30.74,NNE,22,8.1,8.3,49,0.00,,---,0.04,VWS V13.01,2013-05-19 03:05:00,
2013-05-18 20:10:00,50.5,32.6,30.74,NE,45,6.7,6.7,50,0.00,,---,0.04,VWS V13.01,2013-05-19 03:10:00,
2013-05-18 20:15:00,50.2,32.8,30.74,North,0,10.1,10.1,51,0.00,,---,0.04,VWS V13.01,2013-05-19 03:15:00,
2013-05-18 20:20:00,49.8,32.4,30.74,North,0,5.8,8.7,51,0.00,,---,0.04,VWS V13.01,2013-05-19 03:20:00,
2013-05-18 20:25:00,49.3,32.4,30.74,North,0,4.0,4.9,52,0.00,,---,0.04,VWS V13.01,2013-05-19 03:25:00,
2013-05-18 20:30:00,49.1,32.2,30.74,North,0,3.1,7.6,52,0.00,,---,0.04,VWS V13.01,2013-05-19 03:30:00,
2013-05-18 20:35:00,48.9,32.6,30.74,North,0,3.1,4.0,53,0.00,,---,0.04,VWS V13.01,2013-05-19 03:35:00,
2013-05-18 20:40:00,48.7,32.4,30.74,North,0,2.2,4.0,53,0.00,,---,0.04,VWS V13.01,2013-05-19 03:40:00,
2013-05-18 20:45:00,48.6,32.2,30.74,North,0,2.2,3.6,53,0.00,,---,0.04,VWS V13.01,2013-05-19 03:45:00,
2013-05-18 20:50:00,48.4,32.0,30.74,North,0,2.7,2.7,53,0.00,,---,0.04,VWS V13.01,2013-05-19 03:50:00,
2013-05-18 20:55:00,48.2,31.9,30.74,North,0,2.2,4.9,53,0.00,,---,0.04,VWS V13.01,2013-05-19 03:55:00,
2013-05-18 21:00:00,48.0,32.2,30.74,North,0,3.1,3.1,54,0.00,,---,0.04,VWS V13.01,2013-05-19 04:00:00,
2013-05-18 21:01:00,48.0,32.2,30.74,North,0,0.0,3.1,54,0.00,,---,0.04,VWS V13.01,2013-05-19 04:01:00,
2013-05-18 21:06:00,47.8,32.0,30.74,North,0,2.7,2.7,54,0.00,,---,0.04,VWS V13.01,2013-05-19 04:06:00,
2013-05-18 21:11:00,47.8,32.0,30.74,North,0,2.7,3.6,54,0.00,,---,0.04,VWS V13.01,2013-05-19 04:11:00,
2013-05-18 21:16:00,47.7,32.3,30.77,North,0,4.5,4.5,55,0.00,,---,0.04,VWS V13.01,2013-05-19 04:16:00,
2013-05-18 21:21:00,47.7,32.3,30.77,North,0,4.0,4.0,55,0.00,,---,0.04,VWS V13.01,2013-05-19 04:21:00,
2013-05-18 21:26:00,47.5,32.6,30.77,North,0,5.8,5.8,56,0.00,,---,0.04,VWS V13.01,2013-05-19 04:26:00,
2013-05-18 21:31:00,47.3,32.8,30.77,NNE,22,2.7,3.1,57,0.00,,---,0.04,VWS V13.01,2013-05-19 04:31:00,
2013-05-18 21:36:00,47.1,33.1,30.77,North,0,2.7,2.7,58,0.00,,---,0.04,VWS V13.01,2013-05-19 04:36:00,
2013-05-18 21:41:00,46.8,33.2,30.77,NNW,338,2.7,2.7,59,0.00,,---,0.04,VWS V13.01,2013-05-19 04:41:00,
2013-05-18 21:46:00,46.6,33.5,30.77,NNW,338,2.7,2.7,60,0.00,,---,0.04,VWS V13.01,2013-05-19 04:46:00,
2013-05-18 21:51:00,46.2,33.5,30.77,NNW,338,2.7,2.7,61,0.00,,---,0.04,VWS V13.01,2013-05-19 04:51:00,
2013-05-18 21:56:00,45.9,33.6,30.80,North,0,0.0,0.0,62,0.00,,---,0.04,VWS V13.01,2013-05-19 04:56:00,
2013-05-18 22:01:00,45.3,33.5,30.80,North,0,3.1,3.1,63,0.00,,---,0.04,VWS V13.01,2013-05-19 05:01:00,
2013-05-18 22:06:00,44.8,33.4,30.80,West,270,3.1,3.1,64,0.00,,---,0.04,VWS V13.01,2013-05-19 05:06:00,
2013-05-18 22:11:00,44.2,33.6,30.80,West,270,0.0,0.0,66,0.00,,---,0.04,VWS V13.01,2013-05-19 05:11:00,
2013-05-18 22:16:00,43.9,33.7,30.80,West,270,0.0,0.0,67,0.00,,---,0.04,VWS V13.01,2013-05-19 05:16:00,
2013-05-18 22:21:00,43.7,33.8,30.80,West,270,2.7,2.7,68,0.00,,---,0.04,VWS V13.01,2013-05-19 05:21:00,
2013-05-18 22:26:00,43.3,34.2,30.80,West,270,0.0,2.2,70,0.00,,---,0.04,VWS V13.01,2013-05-19 05:26:00,
2013-05-18 22:31:00,42.8,33.7,30.80,West,270,0.0,0.0,70,0.00,,---,0.04,VWS V13.01,2013-05-19 05:31:00,
2013-05-18 22:36:00,42.1,33.7,30.80,West,270,0.0,0.0,72,0.00,,---,0.04,VWS V13.01,2013-05-19 05:36:00,
2013-05-18 22:41:00,41.5,33.5,30.80,West,270,0.0,0.0,73,0.00,,---,0.04,VWS V13.01,2013-05-19 05:41:00,
2013-05-18 22:46:00,41.2,33.5,30.80,West,270,0.0,0.0,74,0.00,,---,0.04,VWS V13.01,2013-05-19 05:46:00,
2013-05-18 22:51:00,40.5,33.8,30.80,West,270,0.0,0.0,77,0.00,,---,0.04,VWS V13.01,2013-05-19 05:51:00,
2013-05-18 22:56:00,39.9,33.6,30.80,West,270,0.0,0.0,78,0.00,,---,0.04,VWS V13.01,2013-05-19 05:56:00,
2013-05-18 23:01:00,39.6,33.6,30.80,West,270,0.0,0.0,79,0.00,,---,0.04,VWS V13.01,2013-05-19 06:01:00,
2013-05-18 23:06:00,39.0,33.7,30.80,West,270,0.0,0.0,81,0.00,,---,0.04,VWS V13.01,2013-05-19 06:06:00,
2013-05-18 23:11:00,38.7,34.0,30.80,West,270,0.0,0.0,83,0.00,,---,0.04,VWS V13.01,2013-05-19 06:11:00,
2013-05-18 23:16:00,38.1,33.7,30.80,West,270,0.0,0.0,84,0.00,,---,0.04,VWS V13.01,2013-05-19 06:16:00,
2013-05-18 23:21:00,37.4,33.3,30.80,West,270,0.0,0.0,85,0.00,,---,0.04,VWS V13.01,2013-05-19 06:21:00,
2013-05-18 23:26:00,37.8,34.2,30.80,West,270,0.0,0.0,87,0.00,,---,0.04,VWS V13.01,2013-05-19 06:26:00,
2013-05-18 23:31:00,37.8,34.5,30.80,West,270,0.0,0.0,88,0.00,,---,0.04,VWS V13.01,2013-05-19 06:31:00,
2013-05-18 23:36:00,37.6,34.3,30.80,West,270,0.0,0.0,88,0.00,,---,0.04,VWS V13.01,2013-05-19 06:36:00,
2013-05-18 23:41:00,37.0,33.8,30.80,West,270,0.0,0.0,88,0.00,,---,0.04,VWS V13.01,2013-05-19 06:41:00,
2013-05-18 23:46:00,36.5,33.3,30.80,West,270,0.0,0.0,88,0.00,,---,0.04,VWS V13.01,2013-05-19 06:46:00,
2013-05-18 23:51:00,36.1,32.9,30.80,West,270,0.0,0.0,88,0.00,,---,0.04,VWS V13.01,2013-05-19 06:51:00,
2013-05-18 23:56:00,36.3,33.7,30.80,West,270,0.0,3.1,90,0.00,,---,0.04,VWS V13.01,2013-05-19 06:56:00,